Time;durP1;ratioP1;P1;durP2;ratioP2;P2;SDS_P1;SDS_P2;PMS_P1;PMS_P2;Temp;Humidity;BMP_temperature;BMP_pressure;BME280_temperature;BME280_humidity;BME280_pressure;Samples;Min_cycle;Max_cycle;Signal;HPM_P1;HPM_P2
2021/12/19 07:56:17;;;;;;;9.07;6.10;;;-4.20;99.90;;;;;;5132689;27;20295;-74
2021/12/19 07:58:43;;;;;;;9.60;6.80;;;-4.10;99.90;;;;;;5132005;27;20910;-74
2021/12/19 08:01:08;;;;;;;11.20;6.80;;;-4.10;99.90;;;;;;5132202;27;20178;-75
2021/12/19 08:03:34;;;;;;;12.13;6.87;;;-4.20;99.90;;;;;;5132725;27;20173;-75
2021/12/19 08:06:00;;;;;;;15.07;7.07;;;-4.20;99.90;;;;;;5132559;27;20302;-75
2021/12/19 08:08:27;;;;;;;12.17;7.43;;;-4.20;99.90;;;;;;5132265;27;20191;-75
2021/12/19 08:13:38;;;;;;;12.37;7.27;;;-3.70;99.90;;;;;;5132528;28;20447;-75
2021/12/19 08:16:04;;;;;;;12.83;6.73;;;-3.80;99.90;;;;;;5130682;28;20466;-76
2021/12/19 08:18:30;;;;;;;10.73;6.50;;;-3.20;99.90;;;;;;5132369;27;20407;-75
2021/12/19 08:20:55;;;;;;;10.67;6.23;;;-2.40;99.90;;;;;;5132044;27;20236;-75
2021/12/19 08:23:21;;;;;;;22.00;10.73;;;-2.40;99.90;;;;;;5132309;27;20191;-76
2021/12/19 08:25:47;;;;;;;35.53;13.57;;;-1.80;99.90;;;;;;5132156;27;20207;-77
2021/12/19 08:28:13;;;;;;;55.90;18.90;;;-0.30;99.90;;;;;;5131993;27;20177;-75
2021/12/19 08:30:38;;;;;;;62.90;25.80;;;-1.30;99.90;;;;;;5130350;28;20190;-76
2021/12/19 08:33:04;;;;;;;31.67;14.17;;;-1.10;99.90;;;;;;5130713;28;20171;-75
2021/12/19 08:35:30;;;;;;;29.90;12.77;;;-0.70;99.90;;;;;;5131228;27;20289;-75
2021/12/19 08:37:55;;;;;;;18.30;9.50;;;-0.60;99.90;;;;;;5131210;28;20233;-75
2021/12/19 08:40:23;;;;;;;21.40;11.40;;;-0.10;99.90;;;;;;5131082;27;20171;-76
2021/12/19 08:42:50;;;;;;;10.33;7.33;;;0.30;99.90;;;;;;5132403;27;20171;-75
2021/12/19 08:45:16;;;;;;;9.80;6.80;;;0.50;99.90;;;;;;5130230;28;20476;-75
2021/12/19 08:47:42;;;;;;;10.73;7.53;;;0.70;99.90;;;;;;5131353;27;20439;-75
2021/12/19 08:50:09;;;;;;;7.80;6.60;;;1.00;99.90;;;;;;5130918;27;20262;-76
2021/12/19 08:52:35;;;;;;;10.80;7.17;;;1.20;99.90;;;;;;5129767;28;20421;-76
2021/12/19 08:55:02;;;;;;;9.40;6.40;;;1.50;99.90;;;;;;5129338;28;20529;-76
2021/12/19 08:57:28;;;;;;;8.07;5.83;;;1.70;99.90;;;;;;5130630;27;20417;-76
2021/12/19 08:59:54;;;;;;;9.47;7.00;;;1.90;99.90;;;;;;5128988;28;20405;-76
2021/12/19 09:02:20;;;;;;;7.83;5.53;;;1.80;99.90;;;;;;5130648;28;20890;-76
2021/12/19 09:04:45;;;;;;;9.37;6.33;;;2.00;99.90;;;;;;5130695;28;20536;-76
2021/12/19 09:07:13;;;;;;;10.73;5.20;;;2.20;99.90;;;;;;5119705;28;20186;-76
2021/12/19 09:09:39;;;;;;;9.70;5.93;;;2.30;99.90;;;;;;5116964;28;20176;-76
2021/12/19 09:12:05;;;;;;;7.77;5.73;;;2.10;99.90;;;;;;5116886;28;20549;-76
2021/12/19 09:14:30;;;;;;;6.07;4.83;;;2.20;99.90;;;;;;5116776;28;20208;-76
2021/12/19 09:16:56;;;;;;;6.63;4.90;;;2.00;99.90;;;;;;5116749;27;20195;-76
2021/12/19 09:19:22;;;;;;;6.77;5.50;;;2.20;99.90;;;;;;5116818;28;20533;-76
2021/12/19 09:21:47;;;;;;;6.27;5.00;;;2.30;99.90;;;;;;5114972;28;20221;-76
2021/12/19 09:24:13;;;;;;;5.80;4.80;;;2.50;99.90;;;;;;5116773;28;20175;-77
2021/12/19 09:26:39;;;;;;;7.67;5.43;;;2.80;99.90;;;;;;5116844;28;20644;-76
2021/12/19 09:29:05;;;;;;;6.93;4.83;;;2.90;99.90;;;;;;5116709;28;20193;-76
2021/12/19 09:31:30;;;;;;;6.50;5.20;;;3.30;99.90;;;;;;5116490;28;20176;-76
2021/12/19 09:33:56;;;;;;;6.17;4.80;;;3.40;99.90;;;;;;5114219;28;20592;-76
2021/12/19 09:36:22;;;;;;;6.53;4.80;;;3.80;99.90;;;;;;5114517;28;20191;-76
2021/12/19 09:38:48;;;;;;;6.13;5.00;;;3.80;99.90;;;;;;5115908;28;20178;-77
2021/12/19 09:41:27;;;;;;;7.80;4.83;;;3.80;99.90;;;;;;5115058;28;20220;-77
2021/12/19 09:43:54;;;;;;;5.67;4.50;;;3.90;99.90;;;;;;5116884;28;20200;-77
2021/12/19 09:46:22;;;;;;;7.37;4.57;;;3.50;99.90;;;;;;5116392;28;20210;-77
2021/12/19 09:48:49;;;;;;;9.57;4.93;;;3.50;99.90;;;;;;5114951;28;20175;-77
2021/12/19 09:51:17;;;;;;;8.73;5.20;;;3.50;99.90;;;;;;5116556;28;20172;-77
2021/12/19 09:53:44;;;;;;;6.57;4.90;;;3.80;99.90;;;;;;5117477;28;20168;-77
2021/12/19 09:56:10;;;;;;;6.60;4.77;;;3.90;99.90;;;;;;5117609;28;20219;-77
2021/12/19 09:58:36;;;;;;;6.77;5.33;;;3.80;99.90;;;;;;5117928;28;20184;-77
2021/12/19 10:01:05;;;;;;;6.53;5.20;;;3.60;99.90;;;;;;5116461;28;20179;-77
2021/12/19 10:03:32;;;;;;;7.67;5.37;;;3.90;99.90;;;;;;5115889;28;20225;-77
2021/12/19 10:06:16;;;;;;;20.23;14.60;;;4.20;99.90;;;;;;5115891;28;20278;-77
2021/12/19 10:08:44;;;;;;;8.40;6.10;;;4.60;99.90;;;;;;5115828;28;20184;-77
2021/12/19 10:11:45;;;;;;;8.40;5.53;;;4.60;99.90;;;;;;5115607;28;20175;-77
2021/12/19 10:14:45;;;;;;;9.93;7.40;;;4.80;99.90;;;;;;5115905;28;20186;-77
2021/12/19 10:17:17;;;;;;;8.40;5.43;;;5.20;99.90;;;;;;5092699;28;20202;-77
2021/12/19 10:19:46;;;;;;;6.50;4.90;;;5.60;99.90;;;;;;5115407;28;20208;-77
2021/12/19 10:22:32;;;;;;;5.43;4.70;;;5.30;99.90;;;;;;5115254;28;20174;-77
2021/12/19 10:25:22;;;;;;;5.67;4.60;;;5.50;99.90;;;;;;5114336;28;20282;-77
2021/12/19 10:27:57;;;;;;;6.63;4.77;;;5.30;99.90;;;;;;5117497;28;20194;-78
2021/12/19 10:30:46;;;;;;;5.97;4.93;;;5.40;99.90;;;;;;5115735;28;20662;-78
2021/12/19 10:33:23;;;;;;;8.30;5.23;;;5.90;99.90;;;;;;5115521;28;20235;-79
2021/12/19 10:35:50;;;;;;;7.83;5.17;;;6.20;99.90;;;;;;5115335;28;20207;-77
2021/12/19 10:38:22;;;;;;;7.20;4.93;;;6.50;99.90;;;;;;5115523;28;20176;-78
2021/12/19 10:40:49;;;;;;;7.90;5.07;;;6.80;99.90;;;;;;5115346;28;20210;-78
2021/12/19 10:43:18;;;;;;;6.40;4.90;;;7.00;99.90;;;;;;5114076;28;20171;-77
2021/12/19 10:45:47;;;;;;;5.87;4.80;;;7.20;99.90;;;;;;5115194;28;20202;-77
2021/12/19 10:48:21;;;;;;;6.50;5.57;;;7.20;99.90;;;;;;5113959;28;20259;-77
2021/12/19 10:51:10;;;;;;;5.93;4.70;;;7.60;99.90;;;;;;5116887;27;20163;-77
2021/12/19 10:53:43;;;;;;;6.17;5.13;;;7.70;99.90;;;;;;5115648;28;20161;-77
2021/12/19 10:56:08;;;;;;;8.73;6.13;;;8.00;99.90;;;;;;5119022;28;20232;-79
2021/12/19 10:58:39;;;;;;;10.73;5.37;;;8.10;99.90;;;;;;5116255;28;20184;-78
2021/12/19 11:01:14;;;;;;;7.57;6.60;;;8.00;99.90;;;;;;5113812;28;20176;-77
2021/12/19 11:03:44;;;;;;;8.20;6.30;;;8.30;99.90;;;;;;5113980;28;20184;-77
2021/12/19 11:06:31;;;;;;;7.60;6.00;;;8.40;99.90;;;;;;5115150;28;20209;-78
2021/12/19 11:08:58;;;;;;;7.73;6.60;;;8.30;99.90;;;;;;5115164;28;20165;-77
2021/12/19 11:11:47;;;;;;;10.03;6.80;;;8.70;99.90;;;;;;5113780;28;20182;-78
2021/12/19 11:14:20;;;;;;;8.20;6.37;;;9.00;99.90;;;;;;5115367;28;20162;-78
2021/12/19 11:16:47;;;;;;;7.63;6.17;;;8.90;99.90;;;;;;5113971;28;20194;-78
2021/12/19 11:19:13;;;;;;;7.57;6.23;;;8.70;99.90;;;;;;5115257;28;20175;-77
2021/12/19 11:21:41;;;;;;;10.13;7.30;;;9.00;99.90;;;;;;5115099;28;20263;-78
2021/12/19 11:24:10;;;;;;;8.20;6.60;;;8.80;99.90;;;;;;5115284;28;20537;-77
2021/12/19 11:26:37;;;;;;;9.80;6.80;;;8.70;99.90;;;;;;5114983;27;20213;-78
2021/12/19 11:29:03;;;;;;;10.13;7.27;;;8.60;99.90;;;;;;5115222;28;20169;-77
2021/12/19 11:31:31;;;;;;;8.43;7.53;;;8.80;99.90;;;;;;5115210;28;20177;-79
2021/12/19 11:34:18;;;;;;;8.27;6.20;;;9.10;99.90;;;;;;5115720;28;20202;-78
2021/12/19 11:37:13;;;;;;;8.47;5.90;;;9.30;99.90;;;;;;5119405;28;20211;-78
2021/12/19 11:39:42;;;;;;;7.40;6.60;;;9.60;99.90;;;;;;5115103;28;20160;-78
2021/12/19 11:42:14;;;;;;;8.13;6.57;;;9.60;99.90;;;;;;5114852;28;20176;-79
2021/12/19 11:47:39;;;;;;;7.73;6.53;;;10.30;99.90;;;;;;5114809;28;20158;-78
2021/12/19 11:50:25;;;;;;;8.77;5.87;;;10.70;99.90;;;;;;5114575;28;20207;-77
2021/12/19 11:53:12;;;;;;;8.10;6.20;;;11.00;99.90;;;;;;5113627;28;20230;-78
2021/12/19 11:55:40;;;;;;;7.30;6.03;;;11.00;99.90;;;;;;5114639;27;20232;-78
2021/12/19 11:58:09;;;;;;;6.63;5.53;;;11.20;99.90;;;;;;5115125;28;20212;-78
2021/12/19 12:00:50;;;;;;;7.27;5.60;;;11.20;99.20;;;;;;5113528;28;20186;-77
2021/12/19 12:03:16;;;;;;;11.50;5.00;;;11.70;99.90;;;;;;5114932;28;20524;-78
2021/12/19 12:06:09;;;;;;;7.73;5.23;;;11.40;99.40;;;;;;5115168;28;20712;-78
2021/12/19 12:08:35;;;;;;;8.70;6.67;;;10.60;99.50;;;;;;5112585;28;20191;-78
2021/12/19 12:11:04;;;;;;;7.20;5.70;;;9.70;99.90;;;;;;5114844;28;20553;-79
2021/12/19 12:13:41;;;;;;;7.20;5.50;;;9.40;99.90;;;;;;5113590;28;20267;-77
2021/12/19 12:16:18;;;;;;;6.73;5.67;;;9.00;99.90;;;;;;5115961;28;20553;-78
2021/12/19 12:18:43;;;;;;;8.50;5.97;;;8.50;99.90;;;;;;5114146;28;20152;-77
2021/12/19 12:21:22;;;;;;;5.97;4.40;;;8.20;99.90;;;;;;5113985;28;20179;-77
2021/12/19 12:24:02;;;;;;;5.70;3.53;;;7.90;99.90;;;;;;5114420;28;20695;-78
2021/12/19 12:26:39;;;;;;;5.03;3.07;;;7.80;99.90;;;;;;5114070;28;20214;-77
2021/12/19 12:29:04;;;;;;;4.07;3.20;;;8.00;99.90;;;;;;5114029;28;20150;-78
2021/12/19 12:31:31;;;;;;;5.10;3.30;;;8.20;99.90;;;;;;5114984;28;20175;-77
2021/12/19 12:33:57;;;;;;;3.73;2.83;;;8.10;99.90;;;;;;5114760;28;20167;-77
2021/12/19 12:36:23;;;;;;;5.50;3.33;;;8.10;99.90;;;;;;5113983;28;20691;-78
2021/12/19 12:38:51;;;;;;;4.37;3.10;;;7.90;99.90;;;;;;5115505;28;20179;-77
2021/12/19 12:41:39;;;;;;;3.47;3.03;;;7.70;99.90;;;;;;5115054;28;20179;-77
2021/12/19 12:44:10;;;;;;;4.80;3.50;;;7.60;99.90;;;;;;5123870;28;20183;-78
2021/12/19 12:46:37;;;;;;;5.50;3.67;;;7.70;99.90;;;;;;5117057;28;20212;-77
2021/12/19 12:49:10;;;;;;;4.47;3.60;;;7.50;99.90;;;;;;5116914;28;20194;-77
2021/12/19 12:51:48;;;;;;;4.00;2.70;;;7.40;99.90;;;;;;5117778;28;20176;-77
2021/12/19 12:54:20;;;;;;;2.67;2.10;;;7.40;99.90;;;;;;5117711;28;20256;-77
2021/12/19 12:56:53;;;;;;;2.80;2.03;;;7.70;99.90;;;;;;5117501;28;20232;-77
2021/12/19 12:59:31;;;;;;;1.90;1.70;;;7.40;99.90;;;;;;5116698;28;20205;-77
2021/12/19 13:02:09;;;;;;;2.50;1.63;;;7.90;99.90;;;;;;5115993;28;20163;-77
2021/12/19 13:04:35;;;;;;;2.93;2.00;;;7.80;99.90;;;;;;5116282;28;20199;-77
2021/12/19 13:07:06;;;;;;;2.97;1.77;;;7.90;99.90;;;;;;5117103;28;20589;-77
2021/12/19 13:09:40;;;;;;;2.40;1.93;;;7.90;99.90;;;;;;5117201;28;20173;-77
2021/12/19 13:12:27;;;;;;;3.70;1.63;;;7.90;99.90;;;;;;5115746;28;20167;-77
2021/12/19 13:15:03;;;;;;;2.27;1.90;;;7.70;99.90;;;;;;5117216;28;20163;-77
2021/12/19 13:17:41;;;;;;;3.23;2.10;;;7.30;99.90;;;;;;5117351;28;20198;-77
2021/12/19 13:20:12;;;;;;;2.20;1.77;;;7.50;99.90;;;;;;5116932;28;20216;-77
2021/12/19 13:22:48;;;;;;;2.50;1.90;;;7.20;99.90;;;;;;5117069;28;20157;-77
2021/12/19 13:25:16;;;;;;;5.27;2.37;;;7.40;99.90;;;;;;5115651;28;20215;-77
2021/12/19 13:27:45;;;;;;;3.03;2.30;;;7.00;99.90;;;;;;5115507;28;20168;-77
2021/12/19 13:30:15;;;;;;;4.50;2.27;;;6.80;99.90;;;;;;5115613;28;20171;-77
2021/12/19 13:32:51;;;;;;;3.53;2.50;;;6.90;99.90;;;;;;5117390;28;20156;-77
2021/12/19 13:35:22;;;;;;;3.87;2.80;;;6.80;99.90;;;;;;5115567;28;20195;-77
2021/12/19 13:38:11;;;;;;;4.83;3.63;;;6.60;99.90;;;;;;5117181;28;20159;-77
2021/12/19 13:40:41;;;;;;;3.60;2.60;;;6.50;99.90;;;;;;5116288;28;20279;-77
2021/12/19 13:43:10;;;;;;;18.80;2.90;;;6.60;99.90;;;;;;5116587;28;20638;-77
2021/12/19 13:45:56;;;;;;;4.27;2.27;;;6.60;99.90;;;;;;5116467;28;20272;-77
2021/12/19 13:48:31;;;;;;;6.07;4.27;;;6.80;99.90;;;;;;5116625;28;20160;-77
2021/12/19 13:51:04;;;;;;;2.73;2.07;;;6.90;99.90;;;;;;5116648;27;20194;-77
2021/12/19 13:53:32;;;;;;;3.43;1.93;;;7.10;99.90;;;;;;5116252;28;20187;-77
2021/12/19 13:56:06;;;;;;;2.43;1.87;;;7.20;99.90;;;;;;5116258;28;20215;-77
2021/12/19 13:58:40;;;;;;;1.90;1.70;;;7.20;99.90;;;;;;5116728;28;20201;-77
2021/12/19 14:01:23;;;;;;;4.37;1.77;;;7.10;99.90;;;;;;5116151;28;20399;-77
2021/12/19 14:04:02;;;;;;;2.57;2.27;;;7.00;99.90;;;;;;5116702;28;20488;-77
2021/12/19 14:06:35;;;;;;;6.53;2.60;;;7.20;99.90;;;;;;5116160;27;20278;-77
2021/12/19 14:09:05;;;;;;;2.53;2.10;;;7.00;99.90;;;;;;5116484;28;20394;-77
2021/12/19 14:11:32;;;;;;;2.90;2.33;;;6.90;99.90;;;;;;5116192;28;20152;-78
2021/12/19 14:14:07;;;;;;;4.83;3.27;;;6.80;99.90;;;;;;5115961;28;20201;-77
2021/12/19 14:16:37;;;;;;;5.80;4.17;;;6.90;99.90;;;;;;5114586;28;20665;-77
2021/12/19 14:19:19;;;;;;;8.37;4.63;;;6.80;99.90;;;;;;5116400;28;20184;-77
2021/12/19 14:21:45;;;;;;;10.10;6.57;;;6.80;99.90;;;;;;5116027;28;20167;-77
2021/12/19 14:24:13;;;;;;;7.20;5.17;;;6.70;99.90;;;;;;5115831;28;20225;-77
2021/12/19 14:26:40;;;;;;;2.30;2.10;;;6.70;99.90;;;;;;5116345;28;20198;-77
2021/12/19 14:29:20;;;;;;;2.30;2.10;;;6.70;99.90;;;;;;5116897;28;20217;-77
2021/12/19 14:31:52;;;;;;;2.10;1.90;;;6.60;99.90;;;;;;5117769;27;20151;-77
2021/12/19 14:34:23;;;;;;;2.93;2.20;;;6.60;99.90;;;;;;5119289;28;20401;-77
2021/12/19 14:36:50;;;;;;;2.63;2.13;;;6.50;99.90;;;;;;5116765;27;20191;-77
2021/12/19 14:39:24;;;;;;;2.60;1.83;;;6.70;99.90;;;;;;5114317;28;20542;-77
2021/12/19 14:41:50;;;;;;;2.77;2.50;;;6.50;99.90;;;;;;5115398;28;20303;-77
2021/12/19 14:44:23;;;;;;;5.17;2.73;;;6.50;99.90;;;;;;5114052;28;20203;-77
2021/12/19 14:46:49;;;;;;;3.33;2.63;;;6.40;99.90;;;;;;5114123;28;20562;-77
2021/12/19 14:49:15;;;;;;;3.37;2.17;;;6.40;99.90;;;;;;5115524;28;20412;-77
2021/12/19 14:51:41;;;;;;;2.97;2.37;;;6.40;99.90;;;;;;5113842;28;20171;-77
2021/12/19 14:54:08;;;;;;;3.60;2.30;;;6.20;99.90;;;;;;5115027;28;20171;-77
2021/12/19 14:56:35;;;;;;;4.70;2.40;;;6.10;99.90;;;;;;5113731;28;20198;-77
2021/12/19 14:59:02;;;;;;;5.60;2.97;;;6.20;99.90;;;;;;5115226;27;20171;-77
2021/12/19 15:01:37;;;;;;;6.73;3.97;;;6.00;99.90;;;;;;5114823;28;20160;-77
2021/12/19 15:04:12;;;;;;;6.30;3.53;;;6.00;99.90;;;;;;5114242;28;20609;-77
2021/12/19 15:06:44;;;;;;;7.20;4.40;;;5.70;99.90;;;;;;5114970;28;20233;-77
2021/12/19 15:09:15;;;;;;;8.43;5.50;;;5.50;99.90;;;;;;5114730;28;20753;-77
2021/12/19 15:11:42;;;;;;;8.87;5.60;;;;;;;;;;5114517;28;20171;-77
2021/12/19 15:14:08;;;;;;;10.00;6.17;;;;;;;;;;5114640;28;20414;-77
2021/12/19 15:16:35;;;;;;;10.10;4.87;;;5.20;99.90;;;;;;5114620;28;20433;-77
2021/12/19 15:19:04;;;;;;;7.87;4.53;;;5.10;99.90;;;;;;5114598;28;20428;-77
2021/12/19 15:21:30;;;;;;;10.67;5.97;;;;;;;;;;5113150;28;20433;-77
2021/12/19 15:23:57;;;;;;;13.50;6.67;;;4.60;99.90;;;;;;5113619;28;20465;-77
2021/12/19 15:26:23;;;;;;;13.73;7.40;;;;;;;;;;5114333;28;20464;-77
2021/12/19 15:28:51;;;;;;;18.83;10.83;;;4.10;99.90;;;;;;5114384;28;20414;-77
2021/12/19 15:31:18;;;;;;;41.57;10.70;;;3.80;99.90;;;;;;5112929;28;20429;-77
2021/12/19 15:33:45;;;;;;;18.67;10.87;;;;;;;;;;5114545;28;20424;-77
2021/12/19 15:36:11;;;;;;;36.70;12.67;;;;;;;;;;5114164;28;20781;-77
2021/12/19 15:38:37;;;;;;;23.47;10.83;;;;;;;;;;5113145;28;20421;-77
2021/12/19 15:41:03;;;;;;;20.27;11.70;;;;;;;;;;5114288;28;20530;-77
2021/12/19 15:43:29;;;;;;;18.40;11.63;;;;;;;;;;5114185;28;20421;-77
2021/12/19 15:45:55;;;;;;;17.13;10.57;;;;;;;;;;5113095;28;20508;-77
2021/12/19 15:48:21;;;;;;;16.50;10.07;;;3.00;99.90;;;;;;5112978;28;20448;-77
2021/12/19 15:50:47;;;;;;;13.63;9.30;;;2.90;99.90;;;;;;5114107;28;20628;-77
2021/12/19 15:53:13;;;;;;;12.90;8.53;;;;;;;;;;5114257;28;20190;-77
2021/12/19 15:55:39;;;;;;;17.57;9.83;;;2.70;99.90;;;;;;5113156;28;20219;-77
2021/12/19 15:58:07;;;;;;;17.30;10.47;;;;;;;;;;5112800;28;20429;-77
2021/12/19 16:00:36;;;;;;;15.97;10.43;;;2.50;99.90;;;;;;5112760;28;20899;-77
2021/12/19 16:03:02;;;;;;;21.07;11.60;;;;;;;;;;5114317;28;20421;-77
2021/12/19 16:05:28;;;;;;;21.27;11.77;;;;;;;;;;5113836;28;20470;-77
2021/12/19 16:07:54;;;;;;;19.37;10.57;;;;;;;;;;5112675;28;20405;-77
2021/12/19 16:10:20;;;;;;;16.40;9.63;;;2.20;99.90;;;;;;5113770;28;20418;-77
2021/12/19 16:12:47;;;;;;;12.77;8.10;;;;;;;;;;5113972;28;20182;-77
2021/12/19 16:15:15;;;;;;;15.17;9.87;;;2.20;99.90;;;;;;5113840;28;20821;-77
2021/12/19 16:17:42;;;;;;;15.40;9.83;;;;;;;;;;5115881;28;20446;-77
2021/12/19 16:20:09;;;;;;;13.53;9.23;;;2.40;99.90;;;;;;5116723;28;20441;-77
2021/12/19 16:22:37;;;;;;;17.77;8.87;;;;;;;;;;5117013;28;20413;-77
2021/12/19 16:25:03;;;;;;;13.60;8.43;;;;;;;;;;5117993;28;20872;-77
2021/12/19 16:27:29;;;;;;;9.10;6.27;;;;;;;;;;5117863;28;20401;-77
2021/12/19 16:29:55;;;;;;;14.40;8.10;;;;;;;;;;5117928;28;20405;-77
2021/12/19 16:32:23;;;;;;;9.20;6.50;;;;;;;;;;5116345;28;20471;-77
2021/12/19 16:34:49;;;;;;;11.57;6.40;;;;;;;;;;5118043;28;20409;-77
2021/12/19 16:37:16;;;;;;;10.17;5.80;;;;;;;;;;5118030;28;20409;-77
2021/12/19 16:39:44;;;;;;;10.43;6.50;;;2.50;99.90;;;;;;5117913;27;20488;-77
2021/12/19 16:43:29;;;;;;;10.73;6.37;;;;;;;;;;5117591;27;20416;-77
2021/12/19 16:44:58;;;;;;;15.50;6.37;;;2.50;99.90;;;;;;5117595;28;20465;-77
2021/12/19 16:47:24;;;;;;;20.50;9.83;;;;;;;;;;5117727;28;20412;-77
2021/12/19 16:49:50;;;;;;;18.00;9.07;;;;;;;;;;5116424;28;20444;-77
2021/12/19 16:52:18;;;;;;;19.43;9.63;;;;;;;;;;5117771;28;20405;-77
2021/12/19 16:54:45;;;;;;;18.57;9.17;;;;;;;;;;5118271;28;20426;-77
2021/12/19 16:57:11;;;;;;;20.93;9.63;;;;;;;;;;5119791;28;20412;-77
2021/12/19 16:59:37;;;;;;;25.17;13.33;;;;;;;;;;5117316;28;20413;-77
2021/12/19 17:02:03;;;;;;;22.33;12.37;;;2.30;99.90;;;;;;5117160;28;20431;-77
2021/12/19 17:04:29;;;;;;;20.90;10.50;;;;;;;;;;5117128;28;20199;-77
2021/12/19 17:06:56;;;;;;;24.93;11.37;;;;;;;;;;5116952;28;20198;-77
2021/12/19 17:09:22;;;;;;;28.33;14.30;;;;;;;;;;5117042;28;20750;-77
2021/12/19 17:11:54;;;;;;;28.73;14.27;;;2.30;99.90;;;;;;5116986;28;20542;-77
2021/12/19 17:14:22;;;;;;;27.27;13.80;;;;;;;;;;5117550;28;20815;-77
2021/12/19 17:16:49;;;;;;;22.90;12.23;;;;;;;;;;5116945;27;20432;-77
2021/12/19 17:19:15;;;;;;;21.83;11.47;;;;;;;;;;5115917;28;20416;-77
2021/12/19 17:21:41;;;;;;;24.97;12.60;;;;;;;;;;5115595;28;20501;-77
2021/12/19 17:24:12;;;;;;;21.70;11.03;;;1.50;99.90;;;;;;5116882;28;20433;-77
2021/12/19 17:26:40;;;;;;;22.30;11.00;;;1.40;99.90;;;;;;5115171;28;20813;-77
2021/12/19 17:29:07;;;;;;;19.33;11.20;;;;;;;;;;5115334;28;20406;-77
2021/12/19 17:31:33;;;;;;;20.23;11.07;;;;;;;;;;5116405;28;20401;-77
2021/12/19 17:33:59;;;;;;;23.70;14.23;;;1.00;99.90;;;;;;5116581;28;20393;-77
2021/12/19 17:36:28;;;;;;;28.07;14.47;;;0.90;99.90;;;;;;5115482;28;20437;-77
2021/12/19 17:38:55;;;;;;;23.67;13.50;;;0.80;99.90;;;;;;5117067;28;20404;-77
2021/12/19 17:41:26;;;;;;;40.03;18.53;;;0.80;99.90;;;;;;5115419;28;20456;-78
2021/12/19 17:43:52;;;;;;;38.93;17.03;;;0.60;99.90;;;;;;5116787;28;20411;-77
2021/12/19 17:46:20;;;;;;;28.87;14.60;;;0.50;99.90;;;;;;5114757;28;20461;-77
2021/12/19 17:48:46;;;;;;;29.47;15.10;;;0.50;99.90;;;;;;5114304;28;20446;-77
2021/12/19 17:51:13;;;;;;;20.77;13.30;;;0.50;99.90;;;;;;5114815;28;20406;-78
2021/12/19 17:53:39;;;;;;;24.90;15.20;;;0.40;99.90;;;;;;5116746;28;20407;-77
2021/12/19 17:56:06;;;;;;;22.90;13.63;;;0.50;99.90;;;;;;5115147;28;20494;-77
2021/12/19 17:58:34;;;;;;;22.20;14.23;;;0.50;99.90;;;;;;5115469;28;20507;-78
2021/12/19 18:01:06;;;;;;;24.60;13.83;;;0.40;99.90;;;;;;5115341;28;20423;-78
2021/12/19 18:03:33;;;;;;;23.53;13.23;;;0.40;99.90;;;;;;5115345;28;20479;-77
2021/12/19 18:05:59;;;;;;;23.33;15.20;;;0.20;99.90;;;;;;5117508;28;20463;-77
2021/12/19 18:08:26;;;;;;;18.10;11.87;;;0.20;99.90;;;;;;5118164;28;20488;-79
2021/12/19 18:10:53;;;;;;;10.53;7.50;;;0.10;99.90;;;;;;5116873;28;20436;-78
2021/12/19 18:13:19;;;;;;;11.03;6.60;;;0.10;99.90;;;;;;5117138;28;20982;-77
2021/12/19 18:15:45;;;;;;;11.03;6.27;;;0.10;99.90;;;;;;5115566;28;20448;-77
2021/12/19 18:18:11;;;;;;;10.17;5.63;;;;;;;;;;5117671;28;20483;-77
2021/12/19 18:20:37;;;;;;;8.20;5.83;;;;;;;;;;5115058;28;20417;-77
2021/12/19 18:23:04;;;;;;;9.47;5.60;;;;;;;;;;5116218;28;20409;-77
2021/12/19 18:25:33;;;;;;;15.00;9.23;;;;;;;;;;5115942;28;20495;-77
2021/12/19 18:27:59;;;;;;;12.60;7.63;;;;;;;;;;5116071;28;20397;-78
2021/12/19 18:30:26;;;;;;;10.47;6.13;;;;;;;;;;5115830;28;20409;-77
2021/12/19 18:32:54;;;;;;;13.63;7.90;;;-0.30;99.90;;;;;;5118249;28;20413;-79
2021/12/19 18:35:25;;;;;;;14.47;7.07;;;-0.40;99.90;;;;;;5120271;28;20494;-78
2021/12/19 18:37:57;;;;;;;26.47;13.43;;;-0.50;99.90;;;;;;5118821;28;20397;-78
2021/12/19 18:40:24;;;;;;;43.00;19.13;;;;;;;;;;5117114;28;20534;-78
2021/12/19 18:45:24;;;;;;;17.40;8.70;;;;;;;;;;5118233;28;20566;-78
2021/12/19 18:55:46;;;;;;;86.77;13.40;;;;;;;;;;5118915;28;20495;-79
2021/12/19 18:58:16;;;;;;;60.63;16.47;;;-1.10;99.90;;;;;;5117078;28;20429;-78
2021/12/19 19:00:47;;;;;;;60.67;15.53;;;-1.20;99.90;;;;;;5116974;28;20422;-78
2021/12/19 19:03:23;;;;;;;87.07;16.97;;;;;;;;;;5117873;28;20462;-78
2021/12/19 19:05:51;;;;;;;104.57;18.10;;;;;;;;;;5116583;28;20553;-78
2021/12/19 19:08:19;;;;;;;73.33;17.80;;;;;;;;;;5117649;28;20410;-78
2021/12/19 19:10:46;;;;;;;95.23;20.50;;;-1.00;99.90;;;;;;5118211;28;20427;-78
2021/12/19 19:13:13;;;;;;;215.77;19.17;;;;;;;;;;5117395;28;20561;-77
2021/12/19 19:15:39;;;;;;;251.93;18.53;;;-1.30;99.90;;;;;;5118169;28;20429;-77
2021/12/19 19:18:07;;;;;;;111.07;15.83;;;-1.30;99.90;;;;;;5115989;28;20440;-77
2021/12/19 19:20:33;;;;;;;131.47;14.30;;;;;;;;;;5115181;28;20417;-78
2021/12/19 19:22:59;;;;;;;58.07;14.40;;;-1.40;99.90;;;;;;5113887;28;20423;-77
2021/12/19 19:25:25;;;;;;;48.20;13.33;;;;;;;;;;5114974;28;20543;-77
2021/12/19 19:27:51;;;;;;;110.63;13.57;;;-1.20;99.90;;;;;;5113532;28;20186;-77
2021/12/19 19:30:18;;;;;;;42.73;13.77;;;-1.20;99.90;;;;;;5115066;28;20423;-77
2021/12/19 19:32:45;;;;;;;42.93;14.40;;;-1.30;99.90;;;;;;5114142;28;20230;-77
2021/12/19 19:35:12;;;;;;;42.73;15.00;;;-1.40;99.90;;;;;;5114730;28;20787;-78
2021/12/19 19:37:48;;;;;;;24.63;12.43;;;-1.20;99.90;;;;;;5115151;28;20416;-78
2021/12/19 19:50:44;;;;;;;36.40;13.47;;;;;;;;;;5118516;28;20421;-79
2021/12/19 19:53:11;;;;;;;71.10;17.17;;;-1.40;99.90;;;;;;5118012;28;20408;-78
2021/12/19 19:55:37;;;;;;;44.37;14.57;;;;;;;;;;5117911;28;20463;-78
2021/12/19 19:58:03;;;;;;;32.33;13.73;;;;;;;;;;5117980;28;20408;-78
2021/12/19 20:00:30;;;;;;;34.73;13.93;;;;;;;;;;5117031;28;20569;-78
2021/12/19 20:02:55;;;;;;;33.13;12.93;;;;;;;;;;5117786;28;20422;-79
2021/12/19 20:05:21;;;;;;;30.57;13.27;;;-1.60;99.90;;;;;;5115900;28;20471;-78
2021/12/19 20:07:47;;;;;;;27.60;11.53;;;;;;;;;;5118634;28;20175;-79
2021/12/19 20:10:13;;;;;;;28.80;11.37;;;-1.60;99.90;;;;;;5118557;28;20244;-79
2021/12/19 20:12:39;;;;;;;35.57;12.10;;;-1.70;99.90;;;;;;5120079;28;20428;-79
2021/12/19 20:15:08;;;;;;;49.17;11.87;;;-1.60;99.90;;;;;;5121025;28;20203;-79
2021/12/19 20:17:34;;;;;;;23.43;11.73;;;;;;;;;;5121319;28;20214;-78
2021/12/19 20:20:01;;;;;;;22.67;11.50;;;;;;;;;;5118558;28;20525;-78
2021/12/19 20:22:27;;;;;;;23.73;11.67;;;;;;;;;;5119196;28;20418;-78
2021/12/19 20:24:53;;;;;;;38.47;11.77;;;;;;;;;;5117865;28;20496;-78
2021/12/19 20:27:20;;;;;;;26.57;11.27;;;-1.40;99.90;;;;;;5118055;28;20426;-78
2021/12/19 20:29:46;;;;;;;29.83;10.90;;;;;;;;;;5123649;28;20436;-78
2021/12/19 20:32:12;;;;;;;45.40;13.40;;;;;;;;;;5126935;28;20409;-79
2021/12/19 20:34:39;;;;;;;25.50;11.73;;;;;;;;;;5119435;28;20782;-78
2021/12/19 20:37:05;;;;;;;26.67;12.00;;;;;;;;;;5119529;28;20424;-78
2021/12/19 20:39:31;;;;;;;26.23;11.63;;;;;;;;;;5118942;28;20416;-80
2021/12/19 20:41:57;;;;;;;25.37;11.93;;;-0.90;99.90;;;;;;5117040;28;20496;-78
2021/12/19 20:44:23;;;;;;;21.63;11.77;;;;;;;;;;5115983;28;20416;-78
2021/12/19 20:46:49;;;;;;;22.80;12.10;;;;;;;;;;5117072;28;20421;-78
2021/12/19 20:49:19;;;;;;;33.60;11.60;;;-1.10;99.90;;;;;;5117947;28;20455;-78
2021/12/19 20:51:46;;;;;;;42.93;11.43;;;-1.10;99.90;;;;;;5116192;28;20536;-78
2021/12/19 20:54:15;;;;;;;51.33;10.80;;;-1.10;99.90;;;;;;5115118;28;20944;-78
2021/12/19 20:56:42;;;;;;;31.93;10.27;;;;;;;;;;5115079;28;20524;-78
2021/12/19 20:59:08;;;;;;;35.03;10.83;;;;;;;;;;5119463;28;20413;-78
2021/12/19 21:01:34;;;;;;;24.87;9.53;;;-1.00;99.90;;;;;;5114992;28;20427;-78
2021/12/19 21:04:00;;;;;;;33.27;9.90;;;;;;;;;;5120070;28;20467;-78
2021/12/19 21:06:31;;;;;;;56.13;9.13;;;;;;;;;;5120266;28;20492;-78
2021/12/19 21:08:58;;;;;;;42.23;10.50;;;-1.30;99.90;;;;;;5118512;28;20397;-77
2021/12/19 21:11:25;;;;;;;40.10;8.97;;;-1.10;99.90;;;;;;5118890;28;20809;-78
2021/12/19 21:19:22;;;;;;;25.77;8.83;;;;;;;;;;5117829;28;20392;-77
2021/12/19 21:21:55;;;;;;;24.20;8.47;;;-1.10;99.90;;;;;;5117074;28;20401;-77
2021/12/19 21:24:23;;;;;;;31.20;10.87;;;-1.10;99.90;;;;;;5112641;28;20455;-77
2021/12/19 21:26:49;;;;;;;38.97;8.50;;;;;;;;;;5116517;28;20849;-77
2021/12/19 21:29:16;;;;;;;126.70;9.60;;;;;;;;;;5117322;28;20458;-77
2021/12/19 21:31:42;;;;;;;41.67;7.97;;;-1.00;99.90;;;;;;5116772;28;20413;-77
2021/12/19 21:34:12;;;;;;;67.67;9.27;;;;;;;;;;5120273;28;20425;-77
2021/12/19 21:39:26;;;;;;;103.90;10.83;;;-0.90;99.90;;;;;;5119605;28;20397;-78
2021/12/19 21:41:52;;;;;;;87.97;11.07;;;-1.00;99.90;;;;;;5118508;28;20410;-78
2021/12/19 21:44:18;;;;;;;75.53;9.90;;;-1.20;99.90;;;;;;5118790;28;20211;-78
2021/12/19 21:46:44;;;;;;;95.33;9.93;;;-1.00;99.90;;;;;;5118244;28;20479;-78
2021/12/19 21:49:11;;;;;;;87.90;12.93;;;;;;;;;;5117544;28;20648;-78
2021/12/19 21:51:37;;;;;;;52.87;9.60;;;;;;;;;;5118625;28;20410;-78